createdAt,value
2019-04-07T00:00:44.642Z,92.60
2019-04-07T00:03:17.346Z,92.70
2019-04-07T00:05:47.422Z,92.50
2019-04-07T00:08:16.974Z,92.50
2019-04-07T00:10:46.866Z,92.30
2019-04-07T00:13:17.052Z,92.30
2019-04-07T00:15:46.457Z,92.20
2019-04-07T00:18:15.702Z,92.10
2019-04-07T00:20:44.964Z,92.10
2019-04-07T00:23:15.115Z,92.30
2019-04-07T00:25:44.383Z,92.80
2019-04-07T00:28:13.571Z,92.80
2019-04-07T00:30:42.815Z,92.80
2019-04-07T00:33:12.159Z,92.60
2019-04-07T00:35:41.685Z,92.70
2019-04-07T00:38:11.155Z,92.70
2019-04-07T00:40:41.177Z,92.60
2019-04-07T00:43:10.875Z,92.70
2019-04-07T00:45:40.548Z,92.80
2019-04-07T00:48:10.544Z,93.30
2019-04-07T00:50:40.523Z,93.10
2019-04-07T00:53:10.985Z,93.60
2019-04-07T00:55:40.805Z,93.90
2019-04-07T00:58:11.535Z,94.50
2019-04-07T01:00:42.445Z,95.00
2019-04-07T01:03:12.273Z,95.50
2019-04-07T01:05:43.387Z,96.30
2019-04-07T01:08:12.854Z,96.90
2019-04-07T01:10:42.726Z,97.10
2019-04-07T01:13:12.012Z,97.20
2019-04-07T01:15:41.715Z,97.30
2019-04-07T01:18:11.314Z,97.50
2019-04-07T01:20:40.572Z,97.80
2019-04-07T01:23:10.617Z,97.80
2019-04-07T01:25:41.119Z,97.70
2019-04-07T01:28:11.013Z,97.50
2019-04-07T01:30:40.412Z,97.40
2019-04-07T01:33:10.232Z,97.60
2019-04-07T01:35:47.290Z,97.70
2019-04-07T01:38:11.347Z,96.90
2019-04-07T01:40:42.307Z,96.20
2019-04-07T01:43:21.719Z,95.60
2019-04-07T01:46:10.060Z,95.30
2019-04-07T01:48:58.596Z,95.20
2019-04-07T01:52:02.027Z,95.30
2019-04-07T01:54:38.411Z,95.60
2019-04-07T01:57:24.914Z,94.30
2019-04-07T02:00:16.460Z,95.50
2019-04-07T02:03:05.008Z,97.10
2019-04-07T02:05:58.443Z,98.30
2019-04-07T02:08:47.510Z,99.30
2019-04-07T02:11:36.052Z,99.80
2019-04-07T02:14:27.415Z,99.70
2019-04-07T02:17:14.684Z,99.10
2019-04-07T02:19:53.108Z,98.90
2019-04-07T02:22:50.900Z,98.30
2019-04-07T02:25:38.024Z,98.30
2019-04-07T02:28:32.007Z,98.20
2019-04-07T02:31:19.247Z,98.00
2019-04-07T02:34:13.724Z,98.10
2019-04-07T02:37:04.902Z,98.30
2019-04-07T02:39:56.768Z,98.50
2019-04-07T02:42:43.658Z,98.30
2019-04-07T02:45:30.211Z,98.10
2019-04-07T02:48:22.094Z,97.80
2019-04-07T02:51:20.125Z,97.40
2019-04-07T02:53:59.369Z,97.10
2019-04-07T02:56:52.206Z,97.00
2019-04-07T02:59:46.624Z,97.30
2019-04-07T03:02:43.780Z,97.10
2019-04-07T03:05:21.040Z,97.10
2019-04-07T03:08:09.187Z,97.10
2019-04-07T03:11:02.065Z,97.20
2019-04-07T03:13:49.129Z,97.70
2019-04-07T03:16:32.525Z,97.70
2019-04-07T03:19:26.084Z,97.40
2019-04-07T03:22:11.015Z,97.40
2019-04-07T03:24:49.754Z,97.60
2019-04-07T03:27:36.821Z,97.80
2019-04-07T03:30:41.215Z,98.00
2019-04-07T03:33:30.286Z,98.30
2019-04-07T03:36:20.536Z,98.80
2019-04-07T03:39:07.010Z,98.90
2019-04-07T03:41:44.898Z,99.00
2019-04-07T03:44:20.326Z,99.00
2019-04-07T03:46:59.987Z,98.90
2019-04-07T03:49:52.935Z,98.80
2019-04-07T03:52:36.408Z,98.60
2019-04-07T03:55:22.769Z,98.70
2019-04-07T03:58:10.034Z,98.80
2019-04-07T04:01:33.163Z,99.20
2019-04-07T04:04:16.724Z,99.20
2019-04-07T04:07:20.658Z,99.50
2019-04-07T04:09:47.420Z,99.30
2019-04-07T04:12:35.695Z,99.50
2019-04-07T04:15:22.233Z,99.20
2019-04-07T04:17:51.742Z,99.00
2019-04-07T04:20:21.624Z,98.30
2019-04-07T04:22:51.011Z,98.30
2019-04-07T04:25:21.260Z,98.70
2019-04-07T04:27:50.888Z,99.20
2019-04-07T04:30:21.176Z,99.50
2019-04-07T04:32:50.875Z,99.70
2019-04-07T04:35:20.108Z,99.80
2019-04-07T04:37:52.337Z,99.80
2019-04-07T04:40:20.769Z,99.80
2019-04-07T04:42:50.895Z,99.80
2019-04-07T04:45:20.914Z,99.80
2019-04-07T04:47:50.131Z,99.80
2019-04-07T04:50:19.739Z,99.80
2019-04-07T04:52:49.008Z,99.80
2019-04-07T04:55:18.922Z,99.70
2019-04-07T04:57:48.600Z,99.60
2019-04-07T05:00:18.741Z,99.50
2019-04-07T05:02:49.359Z,99.60
2019-04-07T05:05:18.929Z,99.70
2019-04-07T05:07:57.813Z,99.80
2019-04-07T05:10:19.383Z,99.80
2019-04-07T05:12:48.812Z,99.80
2019-04-07T05:15:18.151Z,99.80
2019-04-07T05:17:47.700Z,99.80
2019-04-07T05:20:17.318Z,99.80
2019-04-07T05:22:47.497Z,99.80
2019-04-07T05:25:17.364Z,99.80
2019-04-07T05:27:46.832Z,99.80
2019-04-07T05:30:16.793Z,99.80
2019-04-07T05:32:46.765Z,99.80
2019-04-07T05:35:16.204Z,99.80
2019-04-07T05:37:45.944Z,99.80
2019-04-07T05:40:15.527Z,99.80
2019-04-07T05:42:45.471Z,99.80
2019-04-07T05:45:15.007Z,99.80
2019-04-07T05:47:48.728Z,99.80
2019-04-07T05:50:15.505Z,99.70
2019-04-07T05:52:44.806Z,99.20
2019-04-07T05:55:14.266Z,98.70
2019-04-07T05:57:44.142Z,98.30
2019-04-07T06:00:16.557Z,97.90
2019-04-07T06:02:46.053Z,97.60
2019-04-07T06:05:16.208Z,97.40
2019-04-07T06:07:47.014Z,97.00
2019-04-07T06:10:16.642Z,96.90
2019-04-07T06:12:47.360Z,96.40
2019-04-07T06:15:20.965Z,96.30
2019-04-07T06:17:49.017Z,96.20
2019-04-07T06:20:18.932Z,96.20
2019-04-07T06:22:52.733Z,96.10
2019-04-07T06:25:19.492Z,96.00
2019-04-07T06:27:48.972Z,95.60
2019-04-07T06:30:19.141Z,95.50
2019-04-07T06:32:48.503Z,95.70
2019-04-07T06:35:18.336Z,95.50
2019-04-07T06:37:47.718Z,95.40
2019-04-07T06:40:20.491Z,95.30
2019-04-07T06:42:48.793Z,95.20
2019-04-07T06:45:22.752Z,94.90
2019-04-07T06:47:56.195Z,94.60
2019-04-07T06:50:49.445Z,94.50
2019-04-07T06:53:19.825Z,94.40
2019-04-07T06:56:13.196Z,94.00
2019-04-07T06:59:19.925Z,94.00
2019-04-07T07:02:07.358Z,93.80
2019-04-07T07:04:59.357Z,93.80
2019-04-07T07:07:49.721Z,94.00
2019-04-07T07:10:35.566Z,93.30
2019-04-07T07:13:15.521Z,93.50
2019-04-07T07:16:01.653Z,93.70
2019-04-07T07:18:48.751Z,93.40
2019-04-07T07:21:38.703Z,93.30
2019-04-07T07:24:07.173Z,90.90
2019-04-07T07:26:37.140Z,87.70
2019-04-07T07:29:06.791Z,85.60
2019-04-07T07:31:36.887Z,84.60
2019-04-07T07:34:09.312Z,84.10
2019-04-07T07:36:37.220Z,83.80
2019-04-07T07:39:11.388Z,83.20
2019-04-07T07:41:38.985Z,82.60
2019-04-07T07:44:09.604Z,81.40
2019-04-07T07:46:39.669Z,81.90
2019-04-07T07:49:09.223Z,82.50
2019-04-07T07:51:39.605Z,82.20
2019-04-07T07:54:09.935Z,81.60
2019-04-07T07:56:42.205Z,81.60
2019-04-07T07:59:12.478Z,80.90
2019-04-07T08:01:44.322Z,80.30
2019-04-07T08:04:12.675Z,79.00
2019-04-07T08:06:42.416Z,79.50
2019-04-07T08:09:15.198Z,79.90
2019-04-07T08:11:50.160Z,78.70
2019-04-07T08:14:19.900Z,78.50
2019-04-07T08:16:50.103Z,78.20
2019-04-07T08:19:20.107Z,78.30
2019-04-07T08:21:51.214Z,77.00
2019-04-07T08:24:20.900Z,76.50
2019-04-07T08:26:50.314Z,76.10
2019-04-07T08:29:20.342Z,76.30
2019-04-07T08:31:52.638Z,75.20
2019-04-07T08:34:21.120Z,73.00
2019-04-07T08:36:50.452Z,74.10
2019-04-07T08:39:25.145Z,73.70
2019-04-07T08:41:51.802Z,72.20
2019-04-07T08:44:21.578Z,71.50
2019-04-07T08:46:51.814Z,70.80
2019-04-07T08:49:24.013Z,71.30
2019-04-07T08:51:52.660Z,71.60
2019-04-07T08:54:23.543Z,72.50
2019-04-07T08:56:54.197Z,71.00
2019-04-07T08:59:24.039Z,71.20
2019-04-07T09:01:54.316Z,70.40
2019-04-07T09:04:24.179Z,70.90
2019-04-07T09:06:59.314Z,70.50
2019-04-07T09:09:32.820Z,70.20
2019-04-07T09:11:57.303Z,69.60
2019-04-07T09:14:27.228Z,66.50
2019-04-07T09:17:30.712Z,67.40
2019-04-07T09:20:22.234Z,66.70
2019-04-07T09:23:06.968Z,66.70
2019-04-07T09:26:01.605Z,68.70
2019-04-07T09:28:45.767Z,64.30
2019-04-07T09:31:46.340Z,66.10
2019-04-07T09:34:33.570Z,66.90
2019-04-07T09:37:10.766Z,66.70
2019-04-07T09:39:59.041Z,65.00
2019-04-07T09:42:29.509Z,64.00
2019-04-07T09:45:31.010Z,64.90
2019-04-07T09:48:21.800Z,64.40
2019-04-07T09:51:25.247Z,63.00
2019-04-07T09:54:23.399Z,61.50
2019-04-07T09:57:15.644Z,62.60
2019-04-07T10:00:25.155Z,60.60
2019-04-07T10:03:00.243Z,60.10
2019-04-07T10:08:49.787Z,60.40
2019-04-07T10:11:41.822Z,59.70
2019-04-07T10:14:27.151Z,60.50
2019-04-07T10:17:11.778Z,58.80
2019-04-07T10:20:22.885Z,62.20
2019-04-07T10:23:14.115Z,58.40
2019-04-07T10:25:50.665Z,59.60
2019-04-07T10:28:26.478Z,56.90
2019-04-07T10:31:14.686Z,58.30
2019-04-07T10:34:16.519Z,56.60
2019-04-07T10:37:02.661Z,58.10
2019-04-07T10:39:37.099Z,57.70
2019-04-07T10:42:43.766Z,57.90
2019-04-07T10:45:38.505Z,57.00
2019-04-07T10:48:33.323Z,56.40
2019-04-07T10:51:28.524Z,59.50
2019-04-07T10:54:11.451Z,55.70
2019-04-07T10:56:59.880Z,54.60
2019-04-07T10:59:57.861Z,56.30
2019-04-07T11:02:46.257Z,53.50
2019-04-07T11:05:34.505Z,56.20
2019-04-07T11:08:35.607Z,51.10
2019-04-07T11:11:24.539Z,53.10
2019-04-07T11:14:09.927Z,52.50
2019-04-07T11:16:54.912Z,53.70
2019-04-07T11:19:42.239Z,53.70
2019-04-07T11:22:29.643Z,53.50
2019-04-07T11:25:18.315Z,50.70
2019-04-07T11:28:06.784Z,51.10
2019-04-07T11:30:43.959Z,51.10
2019-04-07T11:33:24.589Z,50.30
2019-04-07T11:36:08.382Z,49.80
2019-04-07T11:39:00.491Z,47.90
2019-04-07T11:41:41.330Z,50.10
2019-04-07T11:44:29.293Z,50.10
2019-04-07T11:47:18.353Z,47.80
2019-04-07T11:50:10.465Z,42.80
2019-04-07T11:53:02.010Z,37.00
2019-04-07T11:55:47.539Z,34.40
2019-04-07T11:58:39.798Z,31.20
2019-04-07T12:01:39.497Z,30.50
2019-04-07T12:04:26.579Z,29.80
2019-04-07T12:07:06.587Z,29.40
2019-04-07T12:09:55.246Z,29.50
2019-04-07T12:12:42.336Z,28.10
2019-04-07T12:15:34.662Z,27.80
2019-04-07T12:18:21.959Z,26.30
2019-04-07T12:21:20.746Z,25.20
2019-04-07T12:23:58.352Z,26.30
2019-04-07T12:26:49.476Z,25.40
2019-04-07T12:29:33.100Z,24.20
2019-04-07T12:32:24.896Z,25.50
2019-04-07T12:35:06.302Z,24.60
2019-04-07T12:37:46.607Z,23.00
2019-04-07T12:40:32.950Z,23.90
2019-04-07T12:43:11.488Z,24.30
2019-04-07T12:46:01.194Z,23.60
2019-04-07T12:48:50.057Z,23.70
2019-04-07T12:51:40.023Z,22.50
2019-04-07T12:54:24.806Z,23.30
2019-04-07T12:57:15.625Z,23.20
2019-04-07T13:00:01.831Z,22.80
2019-04-07T13:02:54.372Z,23.40
2019-04-07T13:05:34.609Z,24.00
2019-04-07T13:08:26.197Z,24.00
2019-04-07T13:11:10.651Z,23.10
2019-04-07T13:14:08.719Z,23.30
2019-04-07T13:17:02.768Z,24.20
2019-04-07T13:19:46.043Z,22.80
2019-04-07T13:22:51.823Z,23.20
2019-04-07T13:25:53.210Z,23.90
2019-04-07T13:28:26.058Z,23.70
2019-04-07T13:31:13.509Z,25.30
2019-04-07T13:34:02.987Z,23.40
2019-04-07T13:37:20.013Z,25.50
2019-04-07T13:40:10.052Z,28.30
2019-04-07T13:42:50.882Z,32.00
2019-04-07T13:45:56.881Z,34.30
2019-04-07T13:48:51.556Z,36.20
2019-04-07T13:51:31.308Z,36.10
2019-04-07T13:54:15.272Z,37.80
2019-04-07T13:57:10.173Z,39.90
2019-04-07T14:00:05.305Z,37.40
2019-04-07T14:03:05.887Z,37.10
2019-04-07T14:05:57.982Z,36.80
2019-04-07T14:08:41.595Z,37.30
2019-04-07T14:11:29.589Z,40.00
2019-04-07T14:14:37.193Z,35.40
2019-04-07T14:17:19.703Z,31.80
2019-04-07T14:20:01.613Z,33.90
2019-04-07T14:22:39.944Z,33.80
2019-04-07T14:25:27.937Z,37.80
2019-04-07T14:28:20.116Z,40.60
2019-04-07T14:31:09.311Z,42.20
2019-04-07T14:34:00.146Z,40.50
2019-04-07T14:37:01.163Z,38.90
2019-04-07T14:40:05.172Z,40.70
2019-04-07T14:42:57.118Z,44.20
2019-04-07T14:45:51.922Z,42.60
2019-04-07T14:48:44.768Z,42.50
2019-04-07T14:51:30.608Z,41.50
2019-04-07T14:54:22.808Z,40.50
2019-04-07T14:57:01.052Z,40.40
2019-04-07T14:59:45.002Z,41.50
2019-04-07T15:02:15.702Z,42.20
2019-04-07T15:04:52.104Z,43.70
2019-04-07T15:07:37.905Z,45.10
2019-04-07T15:10:16.513Z,46.50
2019-04-07T15:12:47.481Z,47.40
2019-04-07T15:15:17.118Z,47.70
2019-04-07T15:17:46.549Z,48.70
2019-04-07T15:20:15.943Z,48.40
2019-04-07T15:22:49.404Z,49.30
2019-04-07T15:25:29.674Z,49.80
2019-04-07T15:28:02.425Z,49.40
2019-04-07T15:30:33.344Z,51.20
2019-04-07T15:33:07.317Z,51.90
2019-04-07T15:35:42.615Z,54.10
2019-04-07T15:38:12.987Z,54.90
2019-04-07T15:40:42.856Z,55.20
2019-04-07T15:43:12.717Z,55.10
2019-04-07T15:45:44.395Z,55.00
2019-04-07T15:48:13.685Z,54.00
2019-04-07T15:50:43.211Z,54.80
2019-04-07T15:53:14.986Z,54.90
2019-04-07T15:55:50.982Z,55.50
2019-04-07T15:58:15.056Z,57.00
2019-04-07T16:00:45.096Z,57.10
2019-04-07T16:03:39.228Z,57.00
2019-04-07T16:06:21.891Z,57.20
2019-04-07T16:08:59.929Z,57.40
2019-04-07T16:11:30.342Z,57.80
2019-04-07T16:14:09.088Z,57.10
2019-04-07T16:16:37.214Z,57.70
2019-04-07T16:19:10.873Z,58.10
2019-04-07T16:21:41.435Z,58.90
2019-04-07T16:24:09.456Z,59.00
2019-04-07T16:26:38.836Z,58.70
2019-04-07T16:29:08.513Z,58.90
2019-04-07T16:31:37.888Z,59.70
2019-04-07T16:34:08.856Z,60.20
2019-04-07T16:36:41.367Z,61.00
2019-04-07T16:39:13.533Z,61.60
2019-04-07T16:41:45.334Z,61.00
2019-04-07T16:44:13.958Z,60.40
2019-04-07T16:46:43.730Z,62.50
2019-04-07T16:49:13.997Z,62.90
2019-04-07T16:51:44.840Z,62.70
2019-04-07T16:54:14.394Z,63.30
2019-04-07T16:56:44.163Z,63.60
2019-04-07T16:59:13.645Z,63.20
2019-04-07T17:01:43.366Z,62.20
2019-04-07T17:04:12.925Z,60.60
2019-04-07T17:06:42.227Z,61.30
2019-04-07T17:09:17.987Z,62.00
2019-04-07T17:11:47.545Z,62.70
2019-04-07T17:14:16.888Z,62.90
2019-04-07T17:16:47.165Z,63.80
2019-04-07T17:19:16.546Z,64.80
2019-04-07T17:21:45.801Z,64.50
2019-04-07T17:24:15.078Z,64.80
2019-04-07T17:26:51.791Z,64.50
2019-04-07T17:29:22.306Z,65.10
2019-04-07T17:31:52.393Z,65.90
2019-04-07T17:34:21.821Z,65.10
2019-04-07T17:36:55.582Z,65.00
2019-04-07T17:39:44.988Z,65.30
2019-04-07T17:42:15.647Z,67.00
2019-04-07T17:45:11.583Z,67.90
2019-04-07T17:48:12.820Z,68.90
2019-04-07T17:51:06.013Z,69.00
2019-04-07T17:53:50.611Z,68.90
2019-04-07T17:56:38.167Z,69.70
2019-04-07T17:59:17.097Z,71.50
2019-04-07T18:02:06.435Z,71.80
2019-04-07T18:05:13.124Z,72.10
2019-04-07T18:07:59.182Z,72.20
2019-04-07T18:10:59.523Z,71.60
2019-04-07T18:13:57.657Z,70.60
2019-04-07T18:16:44.659Z,71.20
2019-04-07T18:19:33.759Z,71.90
2019-04-07T18:22:23.519Z,71.40
2019-04-07T18:25:17.344Z,71.20
2019-04-07T18:28:06.734Z,71.50
2019-04-07T18:30:52.612Z,71.40
2019-04-07T18:33:38.788Z,67.60
2019-04-07T18:36:24.651Z,66.90
2019-04-07T18:39:07.888Z,67.50
2019-04-07T18:41:55.044Z,66.50
2019-04-07T18:44:43.230Z,66.00
2019-04-07T18:47:52.276Z,66.00
2019-04-07T18:50:39.658Z,67.40
2019-04-07T18:53:17.754Z,66.80
2019-04-07T18:56:01.395Z,65.00
2019-04-07T18:58:51.659Z,64.20
2019-04-07T19:01:28.522Z,65.70
2019-04-07T19:04:17.258Z,65.70
2019-04-07T19:07:00.015Z,64.60
2019-04-07T19:09:47.640Z,64.10
2019-04-07T19:12:49.201Z,64.60
2019-04-07T19:15:45.375Z,66.20
2019-04-07T19:18:34.493Z,66.40
2019-04-07T19:21:23.411Z,67.30
2019-04-07T19:24:21.582Z,68.60
2019-04-07T19:27:16.072Z,69.70
2019-04-07T19:29:58.441Z,71.00
2019-04-07T19:32:46.969Z,71.10
2019-04-07T19:35:25.054Z,72.70
2019-04-07T19:38:07.311Z,72.50
2019-04-07T19:40:59.301Z,72.30
2019-04-07T19:44:00.718Z,72.80
2019-04-07T19:46:43.498Z,72.70
2019-04-07T19:52:36.222Z,72.60
2019-04-07T19:55:28.725Z,72.50
2019-04-07T19:58:36.061Z,72.10
2019-04-07T20:01:29.268Z,72.50
2019-04-07T20:04:22.805Z,72.40
2019-04-07T20:07:24.311Z,72.00
2019-04-07T20:10:16.448Z,72.50
2019-04-07T20:13:21.961Z,72.30
2019-04-07T20:16:12.860Z,72.70
2019-04-07T20:18:59.397Z,72.20
2019-04-07T20:21:55.306Z,71.90
2019-04-07T20:24:36.697Z,72.30
2019-04-07T20:27:11.213Z,73.10
2019-04-07T20:29:58.422Z,73.30
2019-04-07T20:32:34.738Z,73.30
2019-04-07T20:35:23.814Z,72.40
2019-04-07T20:38:15.922Z,72.10
2019-04-07T20:40:57.599Z,72.30
2019-04-07T20:43:53.952Z,73.30
2019-04-07T20:46:59.362Z,73.60
2019-04-07T20:50:05.526Z,73.40
2019-04-07T20:52:44.957Z,73.70
2019-04-07T20:55:37.788Z,73.60
2019-04-07T20:58:42.152Z,73.60
2019-04-07T21:01:11.249Z,73.50
2019-04-07T21:03:57.946Z,74.10
2019-04-07T21:06:51.596Z,74.20
2019-04-07T21:09:43.767Z,74.50
2019-04-07T21:12:48.371Z,74.50
2019-04-07T21:15:35.818Z,74.50
2019-04-07T21:18:23.545Z,74.80
2019-04-07T21:21:01.836Z,75.00
2019-04-07T21:23:50.868Z,74.70
2019-04-07T21:26:29.787Z,74.60
2019-04-07T21:29:08.145Z,74.80
2019-04-07T21:32:09.995Z,74.90
2019-04-07T21:34:56.182Z,75.30
2019-04-07T21:37:49.049Z,75.70
2019-04-07T21:40:46.145Z,75.70
2019-04-07T21:43:29.620Z,75.80
2019-04-07T21:46:13.015Z,75.80
2019-04-07T21:48:48.806Z,76.10
2019-04-07T21:51:35.868Z,76.20
2019-04-07T21:54:12.011Z,76.60
2019-04-07T21:57:17.222Z,77.00
2019-04-07T22:00:09.242Z,76.90
2019-04-07T22:03:01.332Z,77.10
2019-04-07T22:06:00.603Z,76.90
2019-04-07T22:08:41.996Z,76.70
2019-04-07T22:11:09.261Z,76.60
2019-04-07T22:13:38.713Z,76.70
2019-04-07T22:16:08.344Z,76.80
2019-04-07T22:18:39.415Z,76.70
2019-04-07T22:21:09.725Z,76.90
2019-04-07T22:23:40.147Z,76.90
2019-04-07T22:26:16.215Z,77.30
2019-04-07T22:28:41.493Z,77.50
2019-04-07T22:31:14.337Z,77.70
2019-04-07T22:33:43.291Z,78.20
2019-04-07T22:36:14.276Z,78.30
2019-04-07T22:38:44.394Z,78.40
2019-04-07T22:41:13.675Z,78.50
2019-04-07T22:43:43.452Z,78.70
2019-04-07T22:46:19.471Z,79.60
2019-04-07T22:48:43.882Z,79.90
2019-04-07T22:51:13.787Z,80.30
2019-04-07T22:53:44.099Z,80.80
2019-04-07T22:56:13.986Z,79.50
2019-04-07T22:58:44.471Z,79.30
2019-04-07T23:01:14.328Z,79.40
2019-04-07T23:03:43.844Z,79.00
2019-04-07T23:06:13.451Z,78.70
2019-04-07T23:08:43.261Z,77.90
2019-04-07T23:11:12.868Z,78.20
2019-04-07T23:13:42.618Z,77.50
2019-04-07T23:16:15.109Z,78.10
2019-04-07T23:18:42.868Z,77.30
2019-04-07T23:21:12.615Z,76.60
2019-04-07T23:23:42.171Z,76.50
2019-04-07T23:26:11.454Z,76.30
2019-04-07T23:28:42.514Z,76.90
2019-04-07T23:31:11.846Z,77.90
2019-04-07T23:33:41.778Z,77.10
2019-04-07T23:36:11.574Z,76.80
2019-04-07T23:38:41.154Z,76.60
2019-04-07T23:41:10.364Z,77.00
2019-04-07T23:43:40.522Z,76.80
2019-04-07T23:46:19.813Z,76.70
2019-04-07T23:48:40.739Z,77.20
2019-04-07T23:51:10.214Z,78.60
2019-04-07T23:54:11.137Z,79.20
2019-04-07T23:56:43.638Z,79.90
2019-04-07T23:59:14.609Z,80.50
